< < Back
Terminal Aerodrome Forecast


Current Version              Previous Versions:   1  2  3  4  5  6  7  8  9  

Terminal Aerodrome Forecast

238
FTUS44 KBMX 041123
TAFMGM
TAF
KMGM 041123Z 0412/0512 00000KT 5SM BR SKC
     FM041300 VRB03KT P6SM SCT040
     FM041900 32006KT P6SM SCT040=

Latest METAR

046
SAUS80 KWBC 041200 RRB
MTRMGM
METAR KMGM 041153Z 00000KT 4SM BR CLR 22/21 A3001 RMK AO2 SLP159 70015
T02220206 10228 20217 53014


USA.gov is the U.S. government's official web portal to all federal, state and local government web resources and services.